INDIA METEOROLOGICAL DEPARTMENT, R.M.C. NEW DELHI
Dated:27 - 9 - 2016
METARS


Ahmedabad  
VAAH 271500Z 27003KT 4000 FU NSC 31/21 Q1008 NOSIG=
Amritsar   
VIAR 271500Z 00000KT 1600 BR SCT040 28/28 Q1007 NOSIG=
Bangalore  
VOBL 271500Z 28004KT 6000 SCT012 FEW025CB 23/23 Q1014 NOSIG=
Baroda     
VABO 271400Z 2500KKT 6000 FEW020 31/24 Q1007=
Bhopal     
VABP 271500Z 02003KT 6000 FEW020 SCT100 27/21 Q1010 NO SIG=
Bhubaneswar
VEBS 271500Z 00000KT 3000 HZ SCT018 OVC090 26/25 Q1006 NOSIG =
Chennai    
VOMM 271500Z 16003KT 4500 BR SCT020 29/26 Q1005 BECMG 5000 BR=
Coimbatore 
VOCB 271500Z 20009KT 6000 FEW015 SCT080 25/22 Q1011 NOSIG=
Colombo    
VCBI 271510Z 21009KT 170V230 9999 SCT016 28/23 Q1010 NOSIG=
Delhi      
VIDP 271500Z 05005KT 3500 HZ FEW100 31/24 Q1007 NOSIG =
Gauhati    
VEGT 271500Z NIL=
Gaya       
VEGY 271500Z 00000KT 1500 -TSRA BKN015 FEW030CB OVC080 25/25 Q1007=
Hyderabad  
VOHS 271530Z 32005KT 5000 HZ SCT015 FEW025CB BKN100 26/26 Q1011 NOSIG=
Indore     
VAID 271500Z 34006KT 5000 -TS SCT020 FEWCB030 SCT100 27/19 Q1010 NOSIG=
Jabalpur   
VAJB 271500Z 00000KT 6000 SCT025 26/24 Q1009=
Jaipur     
VIJP 271500Z VRB01KT 6000 SCT030 31/20 Q1008 NOSIG=
Kochi      
VOCI 271500Z 33003KT 5000 HZ SCT020 27/23 Q1010 NOSIG=
Kolkata    
VECC 271500Z 16003KT 3500 HZ FEW020 SCT100 29/26 Q1007 NOSIG=
Kozhikode  
VOCL 271500Z 31003KT 6000 FEW008 SCT012 26/24 Q1010 NOSIG=
Lucknow    
VILK 271500Z 00000KT 4000 HZ SCT020 SCT025 29/26 Q1006 NOSIG=
Madurai    
VOMD 271500Z 17004KT 5000 -TSRA SCT016 FEW025CB SCT025 BKN100 25/24 Q1009 NOSIG=
Mumbai     
VABB 271500Z 31006KT 2500 HZ SCT018 SCT025 BKN100 28/25 Q1010 NOSIG=
Nagpur     
VANP 271500Z 00000KT 2500 HZ SCT015 FEW030CB BKN100 26/25 Q1008 NOSIG=
Patna      
VEPT 271500Z 10004KT 3000 HZ SCT018 FEW030CB BKN100 28/26 Q1006 NOSIG=
Raipur     
VERP 271400Z 08002KT 5000 HZ SCT018 BKN080 26/25 Q1007 NOSIG =
Ranchi     
VERC 271430Z 18004KT 4000 HZ SCT015 BKN100 26/24 Q1010 NOSIG=
Trichy     
VOTR 271500Z 18006KT 6000 SCT016 FEW025CB SCT100 32/22 Q1006 NOSIG=
Trivandrum 
VOTV 271500Z 31007KT 3000 HZ SCT015 27/25 Q1009 NOSIG=
Udaipur    
VAUD 271400Z 03004KT 5000 HZ SCT030 SCT035 29/21 Q1009 NOSIG=
Varanasi   
VEBN 271430Z 00000KT 3000 HZ FEW025 SCT100 28/26 Q1006=
Vizag      
VOVZ 271500Z 00000KT 2500 TS/FU FEW016 FEW025CB SCT080 27/26 Q1006 TEMPO 2000 FU/-RA=
Male       
VRMM 271500Z 31009KT 9999 FEW018 29/26 Q1011 NOSIG=
Gan        
VRMG 271500Z 32005KT 9999 FEW018TCU BKN270 29/25 Q1012=
Kathmandu  
VNKT 271520Z 17004KT 7000 FEW015 FEW025CB SCT030 BKN100 21/19 Q1016 NOSIG=
Dhaka      
VGHS 271500Z 00000KT 4000 HZ FEW015 SCT100 31/26 Q1006 NOSIG=
Colombo    
VCBI 271510Z 21009KT 170V230 9999 SCT016 28/23 Q1010 NOSIG=
Karachi    
OPKC 271500Z NIL=
Lahore     
OPLA 271455Z 11003KT 4000 FU SCT100 31/25 Q1007/A29.73 NOSIG=
Agra       
VIAG 271530Z VRB02KT 6000 FEW250 29/26 Q1007 NOSIG=
Gwalior    
VIGR 271500Z 00000KT 3000 HZ NSC 29/24 Q1007=
Pune       
VAPO 271430Z 27007KT 6000 SCT015 SCT020 BKN090 27/23 Q1013 NOSIG=